Time;durP1;ratioP1;P1;durP2;ratioP2;P2;SDS_P1;SDS_P2;PMS_P1;PMS_P2;Temp;Humidity;BMP_temperature;BMP_pressure;BME280_temperature;BME280_humidity;BME280_pressure;Samples;Min_cycle;Max_cycle;Signal;HPM_P1;HPM_P2
2022/09/06 00:02:11;;;;;;;;;;;21.80;87.70;;;;;;4982700;28;20046;-75
2022/09/06 00:04:36;;;;;;;4.28;2.28;;;21.80;88.20;;;;;;4973890;28;19918;-74
2022/09/06 00:07:02;;;;;;;;;;;21.80;87.80;;;;;;4983532;28;20078;-75
2022/09/06 00:09:28;;;;;;;4.18;2.40;;;21.70;88.50;;;;;;4983505;28;20299;-74
2022/09/06 00:11:53;;;;;;;;;;;21.70;88.00;;;;;;4981236;28;20530;-74
2022/09/06 00:14:19;;;;;;;4.63;2.50;;;21.60;88.90;;;;;;4987229;28;19924;-74
2022/09/06 00:16:44;;;;;;;;;;;21.70;88.30;;;;;;4983448;28;20143;-76
2022/09/06 00:19:10;;;;;;;5.18;2.90;;;21.60;88.80;;;;;;4982700;28;19918;-74
2022/09/06 00:21:35;;;;;;;;;;;21.60;88.50;;;;;;4978265;28;20061;-74
2022/09/06 00:24:02;;;;;;;4.70;2.80;;;21.60;89.50;;;;;;4982339;28;20000;-74
2022/09/06 00:26:28;;;;;;;3.58;2.80;;;21.50;88.80;;;;;;4987007;28;20050;-74
2022/09/06 00:28:53;;;;;;;;;;;21.50;89.10;;;;;;4980670;28;20053;-75
2022/09/06 00:31:21;;;;;;;6.70;2.75;;;21.50;89.80;;;;;;4975945;28;19917;-75
2022/09/06 00:33:48;;;;;;;7.43;2.67;;;21.40;89.30;;;;;;4976240;28;20531;-74
2022/09/06 00:36:14;;;;;;;6.55;2.65;;;21.40;89.60;;;;;;4987047;28;20429;-75
2022/09/06 00:38:39;;;;;;;;;;;21.40;89.80;;;;;;4977335;28;20038;-74
2022/09/06 00:41:07;;;;;;;3.95;2.58;;;21.30;90.20;;;;;;4986646;28;19924;-74
2022/09/06 00:43:33;;;;;;;4.15;2.40;;;21.30;90.00;;;;;;4981249;28;20522;-74
2022/09/06 00:46:00;;;;;;;;;;;21.30;90.10;;;;;;4983416;28;20030;-75
2022/09/06 00:48:25;;;;;;;5.30;2.47;;;21.30;90.50;;;;;;4975158;28;19957;-74
2022/09/06 00:50:54;;;;;;;;;;;21.20;90.20;;;;;;4979565;28;20116;-76
2022/09/06 00:53:21;;;;;;;5.75;3.08;;;21.20;90.60;;;;;;4972941;28;19980;-75
2022/09/06 00:55:47;;;;;;;3.83;2.60;;;21.20;90.30;;;;;;4979990;28;20038;-74
2022/09/06 00:58:13;;;;;;;7.28;3.10;;;21.20;90.40;;;;;;4975926;28;20185;-75
2022/09/06 01:00:39;;;;;;;;;;;21.10;90.40;;;;;;4973680;28;20484;-74
2022/09/06 01:03:06;;;;;;;3.78;2.50;;;21.10;90.70;;;;;;4969903;28;19917;-75
2022/09/06 01:06:32;;;;;;;5.78;3.42;;;21.20;90.50;;;;;;4979219;28;20057;-75
2022/09/06 01:09:01;;;;;;;5.15;2.50;;;21.10;90.60;;;;;;4931199;28;20236;-74
2022/09/06 01:11:46;;;;;;;3.80;2.63;;;21.10;90.50;;;;;;4978865;28;20098;-74
2022/09/06 01:15:05;;;;;;;5.45;2.90;;;21.10;90.60;;;;;;4976825;28;20302;-74
2022/09/06 01:17:33;;;;;;;4.55;2.47;;;21.10;90.70;;;;;;4944625;28;20038;-74
2022/09/06 01:20:18;;;;;;;4.10;2.67;;;21.10;90.60;;;;;;4987605;28;20246;-75
2022/09/06 01:23:28;;;;;;;6.00;2.60;;;21.10;90.80;;;;;;4979309;28;20118;-74
2022/09/06 01:26:27;;;;;;;4.15;2.60;;;21.10;90.80;;;;;;4966454;28;20049;-74
2022/09/06 01:28:54;;;;;;;4.07;2.97;;;21.10;90.90;;;;;;4976780;28;20077;-74
2022/09/06 01:31:43;;;;;;;4.78;2.58;;;21.00;90.80;;;;;;4980055;28;20440;-74
2022/09/06 01:34:21;;;;;;;3.70;2.25;;;21.00;90.80;;;;;;4976022;28;20136;-74
2022/09/06 01:36:49;;;;;;;3.15;2.38;;;21.00;90.80;;;;;;4982342;28;20348;-74
2022/09/06 01:39:28;;;;;;;4.00;2.65;;;21.00;90.80;;;;;;4978749;28;20042;-74
2022/09/06 01:41:59;;;;;;;4.32;2.60;;;21.00;90.90;;;;;;4985481;28;20051;-74
2022/09/06 01:44:28;;;;;;;4.03;2.35;;;21.00;90.90;;;;;;4980973;28;20067;-75
2022/09/06 01:47:07;;;;;;;4.00;2.50;;;20.90;90.80;;;;;;4975535;28;20045;-74
2022/09/06 01:49:53;;;;;;;4.38;2.53;;;20.90;90.70;;;;;;4983331;28;20073;-74
2022/09/06 01:52:48;;;;;;;3.90;2.75;;;20.90;90.70;;;;;;4984532;28;20050;-75
2022/09/06 01:55:35;;;;;;;4.40;2.47;;;20.90;90.80;;;;;;4965592;28;20526;-74
2022/09/06 01:58:09;;;;;;;;;;;20.90;90.80;;;;;;4972235;28;20285;-73
2022/09/06 02:00:44;;;;;;;4.45;2.20;;;20.90;90.90;;;;;;4970565;28;20324;-74
2022/09/06 02:03:36;;;;;;;3.63;2.55;;;20.90;90.80;;;;;;4981874;28;20042;-74
2022/09/06 02:06:15;;;;;;;3.88;2.80;;;20.90;90.80;;;;;;4987747;28;20412;-74
2022/09/06 02:08:45;;;;;;;4.40;2.83;;;20.90;90.80;;;;;;4977674;28;20388;-75
2022/09/06 02:11:13;;;;;;;3.90;2.75;;;20.90;90.80;;;;;;4993943;28;20450;-75
2022/09/06 02:13:54;;;;;;;3.53;2.80;;;20.80;90.80;;;;;;4985740;28;20508;-74
2022/09/06 02:16:23;;;;;;;4.40;2.88;;;20.90;90.90;;;;;;4988959;28;20038;-74
2022/09/06 02:18:51;;;;;;;4.88;3.00;;;20.80;90.90;;;;;;4987178;28;20469;-74
2022/09/06 02:21:21;;;;;;;4.90;3.10;;;20.80;91.00;;;;;;4989361;28;20437;-73
2022/09/06 02:23:48;;;;;;;3.72;2.65;;;20.80;91.10;;;;;;4988639;28;20097;-73
2022/09/06 02:26:21;;;;;;;4.07;2.80;;;20.80;91.10;;;;;;4974976;28;20134;-74
2022/09/06 02:28:47;;;;;;;3.90;2.90;;;20.80;91.20;;;;;;4983130;28;20042;-73
2022/09/06 02:31:32;;;;;;;6.15;3.35;;;20.70;91.20;;;;;;4985212;28;20474;-73
2022/09/06 02:33:58;;;;;;;4.35;3.10;;;20.70;91.30;;;;;;4984963;28;20533;-74
2022/09/06 02:36:24;;;;;;;;;;;20.70;91.30;;;;;;4987557;28;20140;-75
2022/09/06 02:38:49;;;;;;;3.92;2.75;;;20.70;91.40;;;;;;4976831;28;20008;-74
2022/09/06 02:41:21;;;;;;;4.10;2.85;;;20.60;91.20;;;;;;4993322;28;20381;-75
2022/09/06 02:43:47;;;;;;;4.38;2.92;;;20.60;91.30;;;;;;4980518;28;20053;-74
2022/09/06 02:46:12;;;;;;;4.72;3.10;;;20.60;91.30;;;;;;4988055;28;20053;-75
2022/09/06 02:48:38;;;;;;;6.97;3.15;;;20.50;91.30;;;;;;4985921;28;20195;-73
2022/09/06 02:51:04;;;;;;;;;;;20.50;91.40;;;;;;4983185;28;20073;-73
2022/09/06 02:53:29;;;;;;;4.55;2.90;;;20.50;91.60;;;;;;4976060;28;19933;-73
2022/09/06 02:55:56;;;;;;;8.32;2.85;;;20.40;91.40;;;;;;4981967;28;20042;-75
2022/09/06 02:58:21;;;;;;;3.80;2.80;;;20.40;91.50;;;;;;4977344;28;20054;-73
2022/09/06 03:00:51;;;;;;;7.50;2.78;;;20.40;91.60;;;;;;4967827;28;20104;-75
2022/09/06 03:03:17;;;;;;;3.88;2.78;;;20.40;91.50;;;;;;4978624;28;20043;-73
2022/09/06 03:05:46;;;;;;;4.35;2.90;;;20.40;91.60;;;;;;4987177;28;20419;-74
2022/09/06 03:08:12;;;;;;;4.22;2.90;;;20.40;91.70;;;;;;4982348;28;20260;-73
2022/09/06 03:10:38;;;;;;;4.35;2.92;;;20.40;91.70;;;;;;4981341;28;20038;-74
2022/09/06 03:13:03;;;;;;;5.05;2.78;;;20.40;91.70;;;;;;4976857;28;20133;-74
2022/09/06 03:15:29;;;;;;;5.03;3.05;;;20.40;91.70;;;;;;4963347;28;20400;-74
2022/09/06 03:17:58;;;;;;;;;;;20.30;91.80;;;;;;4990414;28;20113;-73
2022/09/06 03:20:24;;;;;;;3.92;2.72;;;20.30;92.00;;;;;;4978720;28;19929;-74
2022/09/06 03:22:50;;;;;;;5.95;3.35;;;20.30;91.80;;;;;;4981865;28;20052;-74
2022/09/06 03:25:15;;;;;;;3.75;2.78;;;20.30;91.90;;;;;;4980489;28;20046;-74
2022/09/06 03:27:42;;;;;;;5.28;2.70;;;20.30;91.90;;;;;;4975257;28;20046;-74
2022/09/06 03:30:09;;;;;;;5.57;3.15;;;20.20;92.00;;;;;;4977849;28;20169;-75
2022/09/06 03:32:35;;;;;;;5.28;3.05;;;20.20;92.00;;;;;;4982457;28;20096;-74
2022/09/06 03:35:01;;;;;;;5.35;2.80;;;20.20;92.00;;;;;;4983386;28;20039;-74
2022/09/06 03:37:27;;;;;;;;;;;20.20;92.00;;;;;;4983663;28;20042;-73
2022/09/06 03:39:52;;;;;;;5.00;3.13;;;20.20;92.30;;;;;;4978740;28;20263;-74
2022/09/06 03:42:18;;;;;;;4.82;3.22;;;20.20;92.20;;;;;;4975153;28;20073;-74
2022/09/06 03:44:43;;;;;;;4.50;3.08;;;20.20;92.20;;;;;;4970292;28;20158;-75
2022/09/06 03:47:09;;;;;;;4.47;3.13;;;20.20;92.20;;;;;;4989990;28;20172;-73
2022/09/06 03:49:35;;;;;;;3.35;2.70;;;20.20;92.30;;;;;;4979188;28;20060;-75
2022/09/06 03:52:00;;;;;;;6.03;3.40;;;20.20;92.40;;;;;;4979701;28;20059;-73
2022/09/06 03:54:27;;;;;;;5.22;3.20;;;20.10;92.40;;;;;;4981654;28;20037;-76
2022/09/06 03:56:54;;;;;;;5.43;3.22;;;20.10;92.60;;;;;;4979381;28;20532;-74
2022/09/06 03:59:22;;;;;;;6.50;3.90;;;20.10;92.70;;;;;;4976666;28;20039;-74
2022/09/06 04:01:48;;;;;;;5.00;3.47;;;20.10;92.80;;;;;;4982529;28;20761;-74
2022/09/06 04:04:16;;;;;;;8.77;3.83;;;20.00;93.00;;;;;;4988878;28;20038;-75
2022/09/06 04:06:41;;;;;;;6.15;3.22;;;20.00;93.10;;;;;;4980230;28;20045;-73
2022/09/06 04:09:07;;;;;;;5.95;3.38;;;20.00;93.40;;;;;;4982513;28;20571;-75
2022/09/06 04:11:32;;;;;;;6.35;3.63;;;20.00;93.50;;;;;;4974880;28;20048;-73
2022/09/06 04:13:58;;;;;;;5.45;3.70;;;20.00;93.70;;;;;;4979840;28;20062;-75
2022/09/06 04:16:23;;;;;;;4.78;3.67;;;20.00;94.30;;;;;;4979295;28;20483;-74
2022/09/06 04:18:49;;;;;;;5.63;3.30;;;19.90;94.30;;;;;;4962667;28;20174;-73
2022/09/06 04:21:15;;;;;;;4.53;3.42;;;19.90;94.90;;;;;;4984383;28;20128;-73
2022/09/06 04:23:40;;;;;;;6.00;3.67;;;19.80;95.30;;;;;;4978630;28;20132;-74
2022/09/06 04:26:06;;;;;;;5.25;3.90;;;19.80;95.70;;;;;;4983729;28;20473;-74
2022/09/06 04:28:32;;;;;;;6.88;4.20;;;19.80;96.30;;;;;;4978861;28;20042;-73
2022/09/06 04:31:00;;;;;;;5.03;4.22;;;19.70;96.90;;;;;;4973537;28;20643;-73
2022/09/06 04:33:27;;;;;;;6.18;4.63;;;19.70;97.60;;;;;;4980056;28;20556;-73
2022/09/06 04:35:55;;;;;;;6.45;4.25;;;19.70;98.40;;;;;;4973856;28;20042;-73
2022/09/06 04:38:22;;;;;;;5.88;4.28;;;19.60;99.10;;;;;;4986593;28;20042;-72
2022/09/06 04:40:47;;;;;;;5.63;4.00;;;19.60;99.90;;;;;;4976925;28;20423;-73
2022/09/06 04:43:13;;;;;;;5.63;4.22;;;19.40;99.90;;;;;;4980807;28;20104;-74
2022/09/06 04:45:39;;;;;;;5.85;4.38;;;19.50;99.90;;;;;;4979869;28;20460;-73
2022/09/06 04:48:05;;;;;;;;;;;19.40;99.90;;;;;;4959627;28;20042;-74
2022/09/06 04:50:30;;;;;;;9.70;4.07;;;19.40;99.90;;;;;;4989471;28;20318;-73
2022/09/06 04:52:56;;;;;;;5.40;3.85;;;19.30;99.90;;;;;;4960886;28;20042;-74
2022/09/06 04:55:21;;;;;;;5.72;4.68;;;19.30;99.90;;;;;;4975076;28;20413;-74
2022/09/06 04:57:47;;;;;;;6.15;3.92;;;19.20;99.90;;;;;;4977180;28;20042;-75
2022/09/06 05:00:13;;;;;;;7.53;4.25;;;19.20;99.90;;;;;;4976695;28;20074;-73
2022/09/06 05:02:38;;;;;;;6.15;4.50;;;19.20;99.90;;;;;;4980434;28;20106;-73
2022/09/06 05:05:05;;;;;;;7.45;4.00;;;19.20;99.90;;;;;;4980707;28;20122;-74
2022/09/06 05:07:30;;;;;;;;;;;19.20;99.90;;;;;;4977754;28;20173;-74
2022/09/06 05:09:58;;;;;;;8.15;4.50;;;19.10;99.90;;;;;;4986691;28;20016;-74
2022/09/06 05:12:26;;;;;;;8.30;4.53;;;19.00;99.90;;;;;;4978584;28;20046;-74
2022/09/06 05:14:52;;;;;;;5.70;4.63;;;19.10;99.90;;;;;;4984283;28;20433;-73
2022/09/06 05:17:17;;;;;;;5.95;4.53;;;19.10;99.90;;;;;;4985562;28;20101;-73
2022/09/06 05:19:43;;;;;;;6.40;4.72;;;19.00;99.90;;;;;;4981970;28;20109;-74
2022/09/06 05:22:10;;;;;;;6.50;4.90;;;19.00;99.90;;;;;;4977585;28;20065;-75
2022/09/06 05:24:36;;;;;;;6.82;4.50;;;18.90;99.90;;;;;;4980932;28;20054;-73
2022/09/06 05:27:03;;;;;;;5.65;4.57;;;19.00;99.90;;;;;;4981764;28;20058;-74
2022/09/06 05:29:29;;;;;;;6.65;5.10;;;18.90;99.90;;;;;;4960997;28;20050;-73
2022/09/06 05:31:55;;;;;;;;;;;18.90;99.90;;;;;;5025411;23;20046;-72
2022/09/06 05:34:20;;;;;;;6.13;4.82;;;18.90;99.90;;;;;;5008313;28;20254;-72
2022/09/06 05:36:46;;;;;;;7.40;4.88;;;18.90;99.90;;;;;;5019546;28;20453;-72
2022/09/06 05:39:11;;;;;;;6.30;4.70;;;18.80;99.90;;;;;;5019999;28;20049;-73
2022/09/06 05:41:37;;;;;;;7.38;4.70;;;18.80;99.90;;;;;;5017665;28;20094;-72
2022/09/06 05:44:03;;;;;;;6.68;5.38;;;18.70;99.90;;;;;;5020772;28;20096;-73
2022/09/06 05:46:31;;;;;;;6.07;4.38;;;18.70;99.90;;;;;;5020224;28;20102;-72
2022/09/06 05:49:06;;;;;;;10.88;4.78;;;18.80;99.90;;;;;;5023837;28;20073;-72
2022/09/06 05:51:32;;;;;;;8.95;5.22;;;18.80;99.90;;;;;;5023873;28;20129;-73
2022/09/06 05:53:58;;;;;;;8.13;4.50;;;18.80;99.90;;;;;;5011212;28;20501;-73
2022/09/06 05:56:24;;;;;;;;;;;18.80;99.90;;;;;;5008411;28;20387;-75
2022/09/06 05:58:49;;;;;;;7.22;4.93;;;18.70;99.90;;;;;;5015522;28;19917;-77
2022/09/06 06:01:17;;;;;;;8.35;4.88;;;18.70;99.90;;;;;;5020774;28;20048;-76
2022/09/06 06:03:53;;;;;;;5.40;4.57;;;18.70;99.90;;;;;;5023154;28;20145;-76
2022/09/06 06:06:20;;;;;;;7.25;5.00;;;18.70;99.90;;;;;;5023617;28;20071;-76
2022/09/06 06:08:46;;;;;;;9.52;5.60;;;18.70;99.90;;;;;;5021224;28;20045;-73
2022/09/06 06:11:12;;;;;;;;;;;18.70;99.90;;;;;;5025055;28;20056;-73
2022/09/06 06:13:40;;;;;;;7.40;5.20;;;18.60;99.90;;;;;;5020199;28;19917;-73
2022/09/06 06:16:07;;;;;;;7.45;4.70;;;18.70;99.90;;;;;;5021898;28;20136;-73
2022/09/06 06:18:33;;;;;;;7.63;4.95;;;18.70;99.90;;;;;;5022724;28;20194;-73
2022/09/06 06:21:19;;;;;;;6.68;5.38;;;18.70;99.90;;;;;;5022699;28;20045;-73
2022/09/06 06:23:48;;;;;;;10.02;4.70;;;18.80;99.90;;;;;;5018887;28;20045;-73
2022/09/06 06:26:13;;;;;;;8.63;5.18;;;18.80;99.90;;;;;;5003689;28;20045;-73
2022/09/06 06:28:40;;;;;;;8.10;5.28;;;18.80;99.90;;;;;;5021382;28;20057;-73
2022/09/06 06:31:07;;;;;;;7.07;5.07;;;18.80;99.90;;;;;;5021088;28;20053;-74
2022/09/06 06:33:35;;;;;;;7.68;5.20;;;18.90;99.90;;;;;;5023079;28;20041;-73
2022/09/06 06:36:03;;;;;;;6.07;4.70;;;18.90;99.90;;;;;;5019184;28;20471;-73
2022/09/06 06:38:36;;;;;;;8.93;5.22;;;18.90;99.90;;;;;;5014733;28;20309;-73
2022/09/06 06:41:04;;;;;;;6.32;5.13;;;18.90;99.90;;;;;;5021177;28;20045;-74
2022/09/06 06:43:35;;;;;;;7.50;5.28;;;18.90;99.90;;;;;;5026870;28;20507;-73
2022/09/06 06:46:09;;;;;;;7.07;5.28;;;19.00;99.90;;;;;;5022437;28;20076;-73
2022/09/06 06:48:36;;;;;;;7.40;5.32;;;19.00;99.90;;;;;;5014056;28;20087;-73
2022/09/06 06:51:02;;;;;;;5.82;4.53;;;19.10;99.90;;;;;;5021326;28;20038;-73
2022/09/06 06:53:27;;;;;;;;;;;19.10;99.90;;;;;;5017867;28;20065;-73
2022/09/06 06:55:53;;;;;;;8.55;5.40;;;19.10;99.90;;;;;;5019698;28;20423;-74
2022/09/06 06:58:19;;;;;;;8.13;5.40;;;19.10;99.90;;;;;;5014244;28;20069;-74
2022/09/06 07:00:45;;;;;;;7.90;5.53;;;19.10;99.90;;;;;;5017100;28;20594;-73
2022/09/06 07:03:11;;;;;;;8.30;5.35;;;19.10;99.90;;;;;;5018466;28;20052;-74
2022/09/06 07:05:37;;;;;;;;;;;19.20;99.90;;;;;;5004370;28;20042;-73
2022/09/06 07:08:04;;;;;;;7.85;5.45;;;19.20;99.90;;;;;;5020718;28;19925;-73
2022/09/06 07:10:30;;;;;;;6.25;5.10;;;19.10;99.90;;;;;;5017089;28;20418;-73
2022/09/06 07:12:56;;;;;;;7.78;5.22;;;19.10;99.90;;;;;;5018350;28;20124;-74
2022/09/06 07:15:21;;;;;;;7.28;5.65;;;19.10;99.90;;;;;;5017056;28;20128;-74
2022/09/06 07:17:47;;;;;;;8.35;5.22;;;19.10;99.90;;;;;;5006580;28;20350;-73
2022/09/06 07:20:13;;;;;;;7.82;4.57;;;19.10;99.90;;;;;;5020820;28;20069;-73
2022/09/06 07:22:39;;;;;;;6.22;4.57;;;19.20;99.90;;;;;;5021198;28;20117;-74
2022/09/06 07:25:06;;;;;;;8.70;6.13;;;19.30;99.90;;;;;;5021184;28;20181;-73
2022/09/06 07:27:32;;;;;;;10.55;6.28;;;19.30;99.90;;;;;;5022916;28;20053;-73
2022/09/06 07:29:57;;;;;;;7.15;5.60;;;19.30;99.90;;;;;;5022913;28;20458;-73
2022/09/06 07:32:23;;;;;;;8.57;5.47;;;19.40;99.90;;;;;;5018137;28;20107;-73
2022/09/06 07:34:48;;;;;;;8.82;5.47;;;19.40;99.90;;;;;;5021868;28;20090;-73
2022/09/06 07:37:14;;;;;;;7.32;5.32;;;19.50;99.90;;;;;;5017664;28;20116;-73
2022/09/06 07:39:40;;;;;;;7.95;5.10;;;19.60;99.90;;;;;;5021838;28;20059;-73
2022/09/06 07:42:06;;;;;;;9.95;5.68;;;19.60;99.90;;;;;;5018112;28;20396;-73
2022/09/06 07:44:32;;;;;;;8.18;5.13;;;19.70;99.90;;;;;;5023500;28;20139;-73
2022/09/06 07:46:57;;;;;;;10.00;6.05;;;19.90;99.90;;;;;;5016636;28;20056;-72
2022/09/06 07:49:23;;;;;;;12.25;6.35;;;20.00;99.90;;;;;;5001779;28;20443;-74
2022/09/06 07:51:49;;;;;;;9.10;6.15;;;20.10;99.90;;;;;;5022106;28;20225;-73
2022/09/06 07:54:15;;;;;;;7.03;5.38;;;20.10;99.90;;;;;;5017250;28;20246;-73
2022/09/06 07:56:40;;;;;;;7.55;5.95;;;20.10;99.90;;;;;;5019934;28;20045;-74
2022/09/06 07:59:06;;;;;;;11.48;6.28;;;20.10;99.90;;;;;;5011066;28;20543;-73
2022/09/06 08:01:38;;;;;;;7.45;5.63;;;20.10;99.90;;;;;;5016793;28;20055;-74
2022/09/06 08:04:07;;;;;;;8.68;5.88;;;20.10;99.90;;;;;;5020636;28;20132;-74
2022/09/06 08:06:35;;;;;;;10.13;5.75;;;20.10;99.90;;;;;;5021002;28;20050;-74
2022/09/06 08:09:02;;;;;;;8.77;6.35;;;20.20;99.90;;;;;;5016003;28;20044;-74
2022/09/06 08:11:29;;;;;;;6.22;5.25;;;20.20;99.90;;;;;;5025363;28;20045;-74
2022/09/06 08:13:56;;;;;;;10.32;6.15;;;20.30;99.90;;;;;;5020826;28;20037;-74
2022/09/06 08:16:24;;;;;;;6.65;5.40;;;20.30;99.90;;;;;;5015325;28;20119;-73
2022/09/06 08:18:54;;;;;;;7.70;5.88;;;20.40;99.90;;;;;;5022078;28;20068;-74
2022/09/06 08:21:25;;;;;;;7.20;5.28;;;20.50;99.90;;;;;;5001218;28;20120;-74
2022/09/06 08:23:59;;;;;;;9.88;5.47;;;20.60;99.90;;;;;;5020217;28;20129;-74
2022/09/06 08:26:26;;;;;;;7.30;6.07;;;20.60;99.90;;;;;;5020159;28;20566;-74
2022/09/06 08:28:54;;;;;;;8.50;5.85;;;20.70;99.90;;;;;;5015199;28;20068;-73
2022/09/06 08:31:20;;;;;;;7.75;5.45;;;20.80;99.90;;;;;;5019222;28;20144;-74
2022/09/06 08:33:46;;;;;;;8.05;6.25;;;20.80;99.90;;;;;;5020636;28;20112;-74
2022/09/06 08:36:12;;;;;;;7.75;5.93;;;20.90;99.90;;;;;;5021969;28;20042;-74
2022/09/06 08:38:38;;;;;;;8.75;5.60;;;21.10;99.90;;;;;;5017141;28;20052;-74
2022/09/06 08:41:15;;;;;;;13.85;6.40;;;21.10;99.90;;;;;;5021876;28;20060;-74
2022/09/06 08:43:49;;;;;;;;;;;21.20;99.90;;;;;;5019404;28;20484;-74
2022/09/06 08:46:17;;;;;;;7.20;5.82;;;21.20;99.90;;;;;;5019795;28;20353;-74
2022/09/06 08:48:43;;;;;;;7.90;5.40;;;21.20;99.90;;;;;;5018783;28;20117;-73
2022/09/06 08:51:08;;;;;;;;;;;21.40;99.90;;;;;;5017527;28;20045;-74
2022/09/06 08:53:40;;;;;;;8.95;5.85;;;21.40;99.90;;;;;;5021800;28;19917;-74
2022/09/06 08:56:21;;;;;;;5.35;4.45;;;21.40;99.90;;;;;;5024754;28;20052;-74
2022/09/06 08:59:07;;;;;;;7.55;5.63;;;21.40;99.90;;;;;;5010363;28;20034;-74
2022/09/06 09:01:46;;;;;;;7.13;5.45;;;21.50;99.90;;;;;;5013948;28;20135;-74
2022/09/06 09:04:17;;;;;;;11.63;6.80;;;21.50;99.90;;;;;;5014436;28;20517;-73
2022/09/06 09:06:49;;;;;;;8.40;5.05;;;21.60;99.90;;;;;;5018988;28;20049;-73
2022/09/06 09:09:15;;;;;;;9.15;6.00;;;21.60;99.90;;;;;;5001844;28;20060;-73
2022/09/06 09:11:42;;;;;;;;;;;21.70;99.90;;;;;;5017579;28;20037;-73
2022/09/06 09:14:15;;;;;;;7.03;5.40;;;21.80;99.90;;;;;;5026846;28;20000;-73
2022/09/06 09:16:41;;;;;;;10.77;5.22;;;21.90;99.90;;;;;;5013468;28;20140;-74
2022/09/06 09:19:08;;;;;;;6.95;5.28;;;22.00;99.90;;;;;;5018610;28;20045;-73
2022/09/06 09:21:36;;;;;;;7.82;5.60;;;22.10;99.90;;;;;;5022834;28;20042;-74
2022/09/06 09:24:05;;;;;;;6.97;5.05;;;22.20;99.90;;;;;;5013251;28;20049;-74
2022/09/06 09:26:49;;;;;;;6.55;4.30;;;22.40;99.90;;;;;;5021134;28;20049;-74
2022/09/06 09:29:16;;;;;;;5.95;4.55;;;22.50;99.90;;;;;;5016686;28;20061;-74
2022/09/06 09:31:46;;;;;;;9.02;6.00;;;22.60;99.90;;;;;;5012778;28;20054;-74
2022/09/06 09:34:33;;;;;;;6.03;4.78;;;22.70;99.90;;;;;;5018583;28;20049;-74
2022/09/06 09:37:26;;;;;;;8.40;5.15;;;22.90;99.90;;;;;;5015732;28;20045;-74
2022/09/06 09:39:56;;;;;;;6.90;5.22;;;23.00;99.90;;;;;;5012277;28;20323;-74
2022/09/06 09:42:36;;;;;;;6.55;4.68;;;23.20;99.90;;;;;;5021359;28;20159;-74
2022/09/06 09:45:27;;;;;;;8.45;4.50;;;23.30;99.90;;;;;;5011010;28;20043;-74
2022/09/06 09:47:53;;;;;;;6.07;4.22;;;23.50;99.90;;;;;;5010761;28;20080;-74
2022/09/06 09:50:29;;;;;;;;;;;23.60;99.90;;;;;;5018817;28;20052;-74
2022/09/06 09:53:05;;;;;;;6.97;3.58;;;23.70;99.90;;;;;;5016857;28;20379;-75
2022/09/06 09:55:31;;;;;;;7.97;4.95;;;23.70;99.90;;;;;;5018628;28;20080;-74
2022/09/06 09:57:56;;;;;;;;;;;23.80;99.90;;;;;;5016282;28;20114;-74
2022/09/06 10:00:39;;;;;;;8.15;4.95;;;23.90;99.90;;;;;;5014387;28;19923;-74
2022/09/06 10:03:16;;;;;;;5.35;4.60;;;23.90;99.90;;;;;;5013472;28;20483;-73
2022/09/06 10:05:53;;;;;;;7.15;4.25;;;24.00;99.90;;;;;;5021856;28;20060;-73
2022/09/06 10:08:22;;;;;;;4.88;3.75;;;24.20;99.90;;;;;;5018321;28;20056;-74
2022/09/06 10:10:48;;;;;;;4.68;3.50;;;24.30;99.90;;;;;;5014593;28;20060;-73
2022/09/06 10:13:33;;;;;;;5.05;3.70;;;24.40;99.90;;;;;;5009020;28;20046;-74
2022/09/06 10:16:01;;;;;;;4.60;3.47;;;24.50;99.80;;;;;;5017231;28;20422;-74
2022/09/06 10:18:34;;;;;;;4.82;3.47;;;24.60;99.60;;;;;;5018324;28;20042;-74
2022/09/06 10:21:03;;;;;;;6.85;3.58;;;24.80;99.40;;;;;;5020415;28;20037;-74
2022/09/06 10:24:02;;;;;;;8.23;3.72;;;24.90;99.20;;;;;;5018577;28;20095;-74
2022/09/06 10:26:46;;;;;;;6.07;4.00;;;25.00;98.80;;;;;;5011872;28;20053;-74
2022/09/06 10:29:13;;;;;;;6.07;3.95;;;25.10;98.10;;;;;;5014181;28;20067;-74
2022/09/06 10:31:38;;;;;;;5.47;3.95;;;25.20;98.20;;;;;;5017621;28;20046;-74
2022/09/06 10:34:25;;;;;;;4.05;3.10;;;25.30;98.00;;;;;;5020144;28;20049;-74
2022/09/06 10:37:11;;;;;;;3.97;3.00;;;25.40;97.70;;;;;;5020789;28;20065;-74
2022/09/06 10:39:46;;;;;;;5.22;3.35;;;25.50;97.20;;;;;;5018814;28;20045;-74
2022/09/06 10:42:12;;;;;;;6.03;2.95;;;25.60;96.90;;;;;;5025221;28;20055;-73
2022/09/06 10:45:12;;;;;;;3.75;2.65;;;25.70;96.70;;;;;;5010026;28;20033;-73
2022/09/06 10:47:55;;;;;;;3.50;2.50;;;25.80;95.40;;;;;;5024428;28;20060;-73
2022/09/06 10:50:29;;;;;;;4.10;2.83;;;25.90;95.50;;;;;;5016721;28;20044;-74
2022/09/06 10:53:01;;;;;;;4.15;2.90;;;26.00;95.50;;;;;;5013452;28;20394;-74
2022/09/06 10:55:29;;;;;;;4.05;2.58;;;26.20;95.00;;;;;;5023576;28;20045;-74
2022/09/06 10:58:03;;;;;;;5.57;2.70;;;26.20;94.80;;;;;;5019659;28;20119;-73
2022/09/06 11:00:42;;;;;;;3.58;2.45;;;26.40;94.60;;;;;;5024939;28;20041;-74
2022/09/06 11:03:36;;;;;;;3.17;2.60;;;26.50;93.90;;;;;;5024223;28;20080;-74
2022/09/06 11:06:07;;;;;;;3.33;2.50;;;26.70;93.70;;;;;;5017565;28;20052;-74
2022/09/06 11:09:11;;;;;;;3.72;2.85;;;26.70;93.10;;;;;;5016436;28;20064;-73
2022/09/06 11:11:55;;;;;;;3.78;2.63;;;26.80;92.90;;;;;;5027133;28;20041;-74
2022/09/06 11:14:24;;;;;;;3.15;2.65;;;26.90;92.40;;;;;;5026616;28;20188;-74
2022/09/06 11:17:01;;;;;;;4.72;3.20;;;27.00;92.10;;;;;;5015432;28;20471;-74
2022/09/06 11:19:36;;;;;;;3.83;2.67;;;27.10;91.50;;;;;;5021672;28;20219;-73
2022/09/06 11:22:08;;;;;;;4.53;3.22;;;27.10;91.50;;;;;;5018386;28;20045;-74
2022/09/06 11:24:52;;;;;;;5.15;2.83;;;27.20;91.30;;;;;;5022861;28;20246;-74
2022/09/06 11:27:35;;;;;;;3.13;2.28;;;27.30;91.30;;;;;;5019897;28;20041;-74
2022/09/06 11:30:04;;;;;;;3.88;2.35;;;27.40;91.20;;;;;;5011200;28;20068;-74
2022/09/06 11:32:47;;;;;;;4.85;2.10;;;27.50;91.00;;;;;;5013568;28;20060;-73
2022/09/06 11:35:31;;;;;;;5.10;1.52;;;27.60;90.30;;;;;;5013585;28;20045;-73
2022/09/06 11:38:06;;;;;;;4.75;2.08;;;27.70;88.40;;;;;;5004808;28;20079;-74
2022/09/06 11:40:40;;;;;;;2.60;1.80;;;27.80;89.00;;;;;;5018430;28;20507;-74
2022/09/06 11:43:11;;;;;;;2.85;2.10;;;27.90;87.80;;;;;;4999146;28;20037;-74
2022/09/06 11:45:44;;;;;;;3.55;2.25;;;27.90;87.70;;;;;;5020813;28;20091;-74
2022/09/06 11:48:22;;;;;;;3.58;2.20;;;28.00;86.50;;;;;;5024405;28;20037;-74
2022/09/06 11:50:57;;;;;;;5.20;2.00;;;28.10;85.70;;;;;;5019371;28;20130;-74
2022/09/06 11:53:26;;;;;;;3.15;2.00;;;28.20;85.30;;;;;;5002788;28;20034;-74
2022/09/06 11:56:01;;;;;;;2.15;1.50;;;28.30;85.70;;;;;;5020908;28;20048;-73
2022/09/06 11:58:39;;;;;;;1.90;1.35;;;28.40;83.70;;;;;;5013836;28;20037;-73
2022/09/06 12:01:10;;;;;;;1.83;1.40;;;28.50;82.30;;;;;;5021712;28;20048;-73
2022/09/06 12:03:45;;;;;;;3.28;1.40;;;28.60;81.40;;;;;;5017883;28;20103;-73
2022/09/06 12:06:25;;;;;;;2.17;1.23;;;28.60;80.00;;;;;;5015696;28;20039;-72
2022/09/06 12:08:52;;;;;;;2.58;1.70;;;28.70;78.80;;;;;;5020652;28;20037;-73
2022/09/06 12:11:43;;;;;;;3.75;1.48;;;28.80;78.40;;;;;;5002240;28;20045;-73
2022/09/06 12:14:27;;;;;;;2.25;1.08;;;28.80;78.20;;;;;;5021196;28;20044;-72
2022/09/06 12:17:03;;;;;;;2.03;1.33;;;29.00;77.60;;;;;;5010491;28;20037;-73
2022/09/06 12:19:38;;;;;;;2.65;1.95;;;29.10;76.70;;;;;;5023854;28;20103;-73
2022/09/06 12:22:31;;;;;;;2.72;1.65;;;29.20;75.10;;;;;;5019645;28;20169;-73
2022/09/06 12:25:14;;;;;;;2.38;1.80;;;29.20;76.10;;;;;;5014444;28;20534;-74
2022/09/06 12:28:21;;;;;;;2.85;1.70;;;29.20;75.60;;;;;;5023186;28;20048;-74
2022/09/06 12:30:48;;;;;;;3.05;1.77;;;29.40;75.80;;;;;;5000657;28;20070;-74
2022/09/06 12:33:25;;;;;;;2.20;1.42;;;29.50;75.60;;;;;;5031875;28;20077;-73
2022/09/06 12:35:51;;;;;;;2.70;1.65;;;29.50;74.90;;;;;;5018012;28;20080;-74
2022/09/06 12:38:23;;;;;;;3.08;1.77;;;29.50;74.70;;;;;;5023640;28;20068;-74
2022/09/06 12:40:51;;;;;;;3.22;1.90;;;29.60;73.90;;;;;;5020486;28;20049;-74
2022/09/06 12:43:18;;;;;;;2.83;1.60;;;29.70;73.20;;;;;;5017365;28;20130;-74
2022/09/06 12:45:47;;;;;;;2.15;1.42;;;29.70;72.30;;;;;;5021128;28;20298;-74
2022/09/06 12:48:25;;;;;;;2.47;1.60;;;29.80;72.20;;;;;;5023513;28;20049;-73
2022/09/06 12:51:24;;;;;;;2.30;1.45;;;29.80;70.30;;;;;;5001142;28;20120;-73
2022/09/06 12:54:01;;;;;;;4.47;1.63;;;29.70;70.10;;;;;;4992580;28;20041;-73
2022/09/06 12:56:29;;;;;;;5.43;1.77;;;29.70;72.10;;;;;;5018289;28;20230;-73
2022/09/06 12:59:23;;;;;;;3.65;2.13;;;29.70;72.20;;;;;;5016912;28;20156;-73
2022/09/06 13:02:12;;;;;;;5.18;2.22;;;29.70;71.90;;;;;;5022147;28;20099;-73
2022/09/06 13:04:45;;;;;;;2.67;2.00;;;29.70;70.90;;;;;;5013103;28;20061;-73
2022/09/06 13:07:15;;;;;;;3.17;1.80;;;29.50;71.60;;;;;;5015459;28;20041;-73
2022/09/06 13:09:45;;;;;;;2.72;1.77;;;29.20;71.60;;;;;;5010901;28;20048;-73
2022/09/06 13:12:20;;;;;;;3.80;1.90;;;29.10;72.20;;;;;;5012682;28;20040;-72
2022/09/06 13:14:50;;;;;;;3.60;2.05;;;29.00;72.40;;;;;;5012695;28;20033;-73